Streetsville, Canada
Current Conditions -  °F | °C
As of 4:00 PM on Friday 24 Oct 2014 (Local Time) from CYYZ Reporting Station
Scattered Clouds Scattered Clouds  
Wind Chill: 61°   Ceiling: Unl
Heat Index: 61°   Visibility: 15mi
Dew Point: 39°   Wind: 3mph
Humidity: 45%   Direction: 270°W
Pressure: 29.93"   Gusts: NA
Location:  43.58°N, 79.72°W
Report Text: CYYZ 242000Z 27003KT 220V300 15SM FEW120 SCT260 16/04 A2993 RMK AC1CI4 AC TR SLP138 DENSITY ALT 700FT
Loading
Personal Weather Stations






























Interactive Weather Map
Tropical Storm Tracking
New forecast layout! Learn more

10-Day Weather Forecast

Advertisements
Track Severe Weather on mobile